createdAt,value
2022-11-20T00:01:34.257Z,42.16
2022-11-20T00:04:02.640Z,43.48
2022-11-20T00:06:31.334Z,45.19
2022-11-20T00:09:01.447Z,42.26
2022-11-20T00:11:32.190Z,44.08
2022-11-20T00:14:02.620Z,41.30
2022-11-20T00:16:33.201Z,39.94
2022-11-20T00:19:01.328Z,41.97
2022-11-20T00:21:30.508Z,41.67
2022-11-20T00:23:59.353Z,40.68
2022-11-20T00:26:28.836Z,42.93
2022-11-20T00:28:59.472Z,43.28
2022-11-20T00:31:28.769Z,42.80
2022-11-20T00:33:57.153Z,42.47
2022-11-20T00:36:27.889Z,44.00
2022-11-20T00:38:58.513Z,44.83
2022-11-20T00:41:28.923Z,42.06
2022-11-20T00:43:57.745Z,41.23
2022-11-20T00:46:28.168Z,42.39
2022-11-20T00:48:56.458Z,41.29
2022-11-20T00:51:26.664Z,41.28
2022-11-20T00:53:58.835Z,41.50
2022-11-20T00:56:27.137Z,41.66
2022-11-20T00:58:55.515Z,42.89
2022-11-20T01:01:26.548Z,43.30
2022-11-20T01:03:57.091Z,42.90
2022-11-20T01:06:28.463Z,43.71
2022-11-20T01:08:59.600Z,45.45
2022-11-20T01:11:30.541Z,45.80
2022-11-20T01:14:00.445Z,43.84
2022-11-20T01:16:37.254Z,43.91
2022-11-20T01:19:08.569Z,46.49
2022-11-20T01:21:40.164Z,46.94
2022-11-20T01:24:11.120Z,46.52
2022-11-20T01:26:41.394Z,44.47
2022-11-20T01:29:23.046Z,43.84
2022-11-20T01:31:52.394Z,44.25
2022-11-20T01:34:22.107Z,43.99
2022-11-20T01:36:53.436Z,45.88
2022-11-20T01:39:24.232Z,44.36
2022-11-20T01:41:54.826Z,45.52
2022-11-20T01:44:54.765Z,47.64
2022-11-20T01:47:37.483Z,45.70
2022-11-20T01:50:29.556Z,46.25
2022-11-20T01:53:02.872Z,46.43
2022-11-20T01:55:42.473Z,46.82
2022-11-20T01:58:11.265Z,46.60
2022-11-20T02:00:39.463Z,47.31
2022-11-20T02:03:15.055Z,47.18
2022-11-20T02:05:58.953Z,48.36
2022-11-20T02:08:27.125Z,47.37
2022-11-20T02:10:55.303Z,47.39
2022-11-20T02:13:23.786Z,47.87
2022-11-20T02:15:52.782Z,48.83
2022-11-20T02:18:22.394Z,48.38
2022-11-20T02:20:56.931Z,48.48
2022-11-20T02:23:40.240Z,47.86
2022-11-20T02:26:13.024Z,47.67
2022-11-20T02:28:41.547Z,47.99
2022-11-20T02:31:09.894Z,47.46
2022-11-20T02:33:38.301Z,47.38
2022-11-20T02:36:09.392Z,46.20
2022-11-20T02:38:37.600Z,47.08
2022-11-20T02:41:05.982Z,47.34
2022-11-20T02:43:34.367Z,47.69
2022-11-20T02:46:02.444Z,48.21
2022-11-20T02:48:33.820Z,47.43
2022-11-20T02:51:02.790Z,48.43
2022-11-20T02:53:30.969Z,47.27
2022-11-20T02:55:59.452Z,48.57
2022-11-20T02:58:27.533Z,48.43
2022-11-20T03:00:55.747Z,48.26
2022-11-20T03:03:24.091Z,47.68
2022-11-20T03:05:52.290Z,47.64
2022-11-20T03:08:20.604Z,47.59
2022-11-20T03:10:48.630Z,47.58
2022-11-20T03:13:16.908Z,47.52
2022-11-20T03:15:45.188Z,47.41
2022-11-20T03:18:14.297Z,49.38
2022-11-20T03:20:42.775Z,48.74
2022-11-20T03:23:11.052Z,48.61
2022-11-20T03:25:39.236Z,49.08
2022-11-20T03:28:07.407Z,48.38
2022-11-20T03:30:36.409Z,48.51
2022-11-20T03:33:04.483Z,49.27
2022-11-20T03:35:32.506Z,49.00
2022-11-20T03:38:00.838Z,49.22
2022-11-20T03:40:29.021Z,48.37
2022-11-20T03:42:57.095Z,48.96
2022-11-20T03:45:25.273Z,49.32
2022-11-20T03:47:53.458Z,48.80
2022-11-20T03:50:21.731Z,49.17
2022-11-20T03:52:50.011Z,48.74
2022-11-20T03:55:18.396Z,48.60
2022-11-20T03:57:46.587Z,48.81
2022-11-20T04:00:15.467Z,48.91
2022-11-20T04:02:43.546Z,48.58
2022-11-20T04:05:11.721Z,49.30
2022-11-20T04:07:39.934Z,48.80
2022-11-20T04:10:08.694Z,48.51
2022-11-20T04:12:36.666Z,48.73
2022-11-20T04:15:05.869Z,48.93
2022-11-20T04:17:34.086Z,49.34
2022-11-20T04:20:03.285Z,49.08
2022-11-20T04:22:31.425Z,49.12
2022-11-20T04:24:59.503Z,48.98
2022-11-20T04:27:27.825Z,49.28
2022-11-20T04:29:56.371Z,49.20
2022-11-20T04:32:24.462Z,49.63
2022-11-20T04:34:52.629Z,49.46
2022-11-20T04:37:23.058Z,49.29
2022-11-20T04:39:51.232Z,51.14
2022-11-20T04:42:19.510Z,49.55
2022-11-20T04:44:47.997Z,49.93
2022-11-20T04:47:16.079Z,49.45
2022-11-20T04:49:44.284Z,49.81
2022-11-20T04:52:12.634Z,50.69
2022-11-20T04:54:40.914Z,50.72
2022-11-20T04:57:14.072Z,52.05
2022-11-20T04:59:43.210Z,49.87
2022-11-20T05:02:12.308Z,50.21
2022-11-20T05:04:40.621Z,50.58
2022-11-20T05:07:08.943Z,50.03
2022-11-20T05:09:37.496Z,50.39
2022-11-20T05:12:05.877Z,51.34
2022-11-20T05:14:34.394Z,51.64
2022-11-20T05:17:03.017Z,50.66
2022-11-20T05:19:31.093Z,50.88
2022-11-20T05:21:59.372Z,50.50
2022-11-20T05:24:27.549Z,51.12
2022-11-20T05:26:55.523Z,51.03
2022-11-20T05:29:24.027Z,52.13
2022-11-20T05:31:52.189Z,51.47
2022-11-20T05:34:20.369Z,51.53
2022-11-20T05:36:48.545Z,51.13
2022-11-20T05:39:16.622Z,50.98
2022-11-20T05:41:44.900Z,50.84
2022-11-20T05:44:13.695Z,50.25
2022-11-20T05:46:41.871Z,50.81
2022-11-20T05:49:10.114Z,50.56
2022-11-20T05:51:38.434Z,50.51
2022-11-20T05:54:06.512Z,51.32
2022-11-20T05:56:34.690Z,51.11
2022-11-20T05:59:02.765Z,50.74
2022-11-20T06:01:31.144Z,51.61
2022-11-20T06:03:59.322Z,50.94
2022-11-20T06:06:27.705Z,52.33
2022-11-20T06:08:56.397Z,51.63
2022-11-20T06:11:24.472Z,50.59
2022-11-20T06:13:53.468Z,50.47
2022-11-20T06:16:21.649Z,50.96
2022-11-20T06:18:50.031Z,51.81
2022-11-20T06:21:21.722Z,51.35
2022-11-20T06:23:51.553Z,51.34
2022-11-20T06:26:22.551Z,51.07
2022-11-20T06:28:52.605Z,52.11
2022-11-20T06:31:26.345Z,52.08
2022-11-20T06:33:55.064Z,51.47
2022-11-20T06:36:24.265Z,51.99
2022-11-20T06:38:52.456Z,51.24
2022-11-20T06:41:22.948Z,52.52
2022-11-20T06:43:51.362Z,52.18
2022-11-20T06:46:21.277Z,51.59
2022-11-20T06:48:50.349Z,51.79
2022-11-20T06:51:19.377Z,52.86
2022-11-20T06:53:47.963Z,51.73
2022-11-20T06:56:16.447Z,52.10
2022-11-20T06:58:44.728Z,53.05
2022-11-20T07:01:16.153Z,52.46
2022-11-20T07:03:45.218Z,52.14
2022-11-20T07:06:13.459Z,52.59
2022-11-20T07:08:42.000Z,52.81
2022-11-20T07:11:13.299Z,52.02
2022-11-20T07:13:41.574Z,52.49
2022-11-20T07:16:10.317Z,52.02
2022-11-20T07:18:38.549Z,52.79
2022-11-20T07:21:09.818Z,52.86
2022-11-20T07:23:38.690Z,52.86
2022-11-20T07:26:09.264Z,49.27
2022-11-20T07:28:38.426Z,45.12
2022-11-20T07:31:07.115Z,42.45
2022-11-20T07:33:35.495Z,40.64
2022-11-20T07:36:03.989Z,38.50
2022-11-20T07:38:32.161Z,37.79
2022-11-20T07:41:00.235Z,36.79
2022-11-20T07:43:28.942Z,35.54
2022-11-20T07:45:57.940Z,33.82
2022-11-20T07:48:26.526Z,32.06
2022-11-20T07:50:56.370Z,31.34
2022-11-20T07:53:25.321Z,29.52
2022-11-20T07:55:53.811Z,28.88
2022-11-20T07:58:22.635Z,27.61
2022-11-20T08:00:50.762Z,27.66
2022-11-20T08:03:24.409Z,28.43
2022-11-20T08:05:53.283Z,28.32
2022-11-20T08:08:21.975Z,27.49
2022-11-20T08:10:50.064Z,27.01
2022-11-20T08:13:18.212Z,25.72
2022-11-20T08:15:50.914Z,24.45
2022-11-20T08:18:34.392Z,22.76
2022-11-20T08:21:06.296Z,22.04
2022-11-20T08:23:34.370Z,21.27
2022-11-20T08:26:02.551Z,20.74
2022-11-20T08:28:30.827Z,19.90
2022-11-20T08:31:01.061Z,19.44
2022-11-20T08:33:30.151Z,19.14
2022-11-20T08:36:03.056Z,18.92
2022-11-20T08:38:32.220Z,18.43
2022-11-20T08:41:01.956Z,18.65
2022-11-20T08:43:30.240Z,17.97
2022-11-20T08:45:59.025Z,17.55
2022-11-20T08:48:27.059Z,17.66
2022-11-20T08:50:58.556Z,17.70
2022-11-20T08:53:27.556Z,17.28
2022-11-20T08:55:57.728Z,17.19
2022-11-20T08:58:26.975Z,17.05
2022-11-20T09:00:55.277Z,16.58
2022-11-20T09:03:25.525Z,16.16
2022-11-20T09:06:04.200Z,16.15
2022-11-20T09:08:32.593Z,16.06
2022-11-20T09:11:00.988Z,15.44
2022-11-20T09:13:30.098Z,15.21
2022-11-20T09:16:01.134Z,15.39
2022-11-20T09:18:30.417Z,15.21
2022-11-20T09:20:59.655Z,15.34
2022-11-20T09:23:31.989Z,15.10
2022-11-20T09:26:03.768Z,15.43
2022-11-20T09:28:32.340Z,15.46
2022-11-20T09:31:00.829Z,15.71
2022-11-20T09:33:28.900Z,16.12
2022-11-20T09:35:57.153Z,16.88
2022-11-20T09:38:25.358Z,17.62
2022-11-20T09:41:07.867Z,18.08
2022-11-20T09:43:53.332Z,18.06
2022-11-20T09:46:27.651Z,18.73
2022-11-20T09:49:01.868Z,18.30
2022-11-20T09:51:38.462Z,18.43
2022-11-20T09:54:23.296Z,18.15
2022-11-20T09:56:58.240Z,17.86
2022-11-20T09:59:31.901Z,17.74
2022-11-20T10:02:02.363Z,17.20
2022-11-20T10:04:36.898Z,16.62
2022-11-20T10:07:35.565Z,16.19
2022-11-20T10:10:04.296Z,16.10
2022-11-20T10:13:08.562Z,16.13
2022-11-20T10:15:57.287Z,15.72
2022-11-20T10:18:45.943Z,15.47
2022-11-20T10:21:31.017Z,15.06
2022-11-20T10:24:28.763Z,15.22
2022-11-20T10:27:21.395Z,15.19
2022-11-20T10:30:09.836Z,14.72
2022-11-20T10:32:41.663Z,15.05
2022-11-20T10:35:28.193Z,15.11
2022-11-20T10:38:00.677Z,14.70
2022-11-20T10:40:45.579Z,14.75
2022-11-20T10:43:34.608Z,14.71
2022-11-20T10:46:23.540Z,14.47
2022-11-20T10:48:52.634Z,14.32
2022-11-20T10:51:42.932Z,14.23
2022-11-20T10:54:19.390Z,14.40
2022-11-20T10:56:51.502Z,14.14
2022-11-20T11:00:11.136Z,14.10
2022-11-20T11:02:53.611Z,14.31
2022-11-20T11:05:21.684Z,14.19
2022-11-20T11:07:56.588Z,13.95
2022-11-20T11:10:46.284Z,14.00
2022-11-20T11:13:23.320Z,14.35
2022-11-20T11:15:51.953Z,14.23
2022-11-20T11:18:29.151Z,14.26
2022-11-20T11:20:58.811Z,14.21
2022-11-20T11:23:35.629Z,14.48
2022-11-20T11:26:07.391Z,14.44
2022-11-20T11:28:35.745Z,14.33
2022-11-20T11:31:04.047Z,14.39
2022-11-20T11:33:33.658Z,14.47
2022-11-20T11:36:05.222Z,15.00
2022-11-20T11:38:42.390Z,14.81
2022-11-20T11:41:18.092Z,15.28
2022-11-20T11:43:55.473Z,16.16
2022-11-20T11:46:37.942Z,16.97
2022-11-20T11:49:06.018Z,18.11
2022-11-20T11:51:42.842Z,18.66
2022-11-20T11:54:37.577Z,19.45
2022-11-20T11:57:21.821Z,20.97
2022-11-20T12:00:04.475Z,21.56
2022-11-20T12:02:46.735Z,22.50
2022-11-20T12:05:19.924Z,23.63
2022-11-20T12:08:12.205Z,24.97
2022-11-20T12:11:13.279Z,25.16
2022-11-20T12:14:04.377Z,25.25
2022-11-20T12:16:38.084Z,25.99
2022-11-20T12:19:14.891Z,26.72
2022-11-20T12:21:51.752Z,26.52
2022-11-20T12:24:38.375Z,27.31
2022-11-20T12:27:16.950Z,27.78
2022-11-20T12:30:18.750Z,28.23
2022-11-20T12:33:37.734Z,28.83
2022-11-20T12:36:20.542Z,28.77
2022-11-20T12:39:08.577Z,28.96
2022-11-20T12:41:44.976Z,29.28
2022-11-20T12:44:35.117Z,30.01
2022-11-20T12:47:29.495Z,29.83
2022-11-20T12:50:09.786Z,30.14
2022-11-20T12:52:57.264Z,30.22
2022-11-20T12:55:37.184Z,30.59
2022-11-20T12:58:11.020Z,29.89
2022-11-20T13:00:52.993Z,29.71
2022-11-20T13:03:33.581Z,30.10
2022-11-20T13:06:13.830Z,30.04
2022-11-20T13:08:46.716Z,30.13
2022-11-20T13:11:42.416Z,30.43
2022-11-20T13:14:25.672Z,30.71
2022-11-20T13:17:06.086Z,30.57
2022-11-20T13:19:35.914Z,30.32
2022-11-20T13:22:04.092Z,30.66
2022-11-20T13:24:33.602Z,31.06
2022-11-20T13:27:06.115Z,31.14
2022-11-20T13:29:36.131Z,30.74
2022-11-20T13:32:16.257Z,31.15
2022-11-20T13:34:56.046Z,31.52
2022-11-20T13:37:39.927Z,31.25
2022-11-20T13:40:11.079Z,30.96
2022-11-20T13:42:55.732Z,31.34
2022-11-20T13:45:29.635Z,31.46
2022-11-20T13:47:59.715Z,31.51
2022-11-20T13:50:47.897Z,31.45
2022-11-20T13:53:39.313Z,31.37
2022-11-20T13:56:17.516Z,31.31
2022-11-20T13:59:15.193Z,31.34
2022-11-20T14:01:47.097Z,31.30
2022-11-20T14:04:20.235Z,31.66
2022-11-20T14:06:50.158Z,31.82
2022-11-20T14:09:29.771Z,31.97
2022-11-20T14:11:58.871Z,32.46
2022-11-20T14:14:29.299Z,33.17
2022-11-20T14:17:25.930Z,33.20
2022-11-20T14:19:55.067Z,33.03
2022-11-20T14:22:25.885Z,32.68
2022-11-20T14:25:15.330Z,32.45
2022-11-20T14:27:49.135Z,32.70
2022-11-20T14:30:20.505Z,32.79
2022-11-20T14:32:51.119Z,32.87
2022-11-20T14:35:32.497Z,32.51
2022-11-20T14:38:03.540Z,32.44
2022-11-20T14:40:34.491Z,33.20
2022-11-20T14:43:06.139Z,33.78
2022-11-20T14:45:34.323Z,33.66
2022-11-20T14:48:02.599Z,33.47
2022-11-20T14:50:31.186Z,33.58
2022-11-20T14:53:01.310Z,33.38
2022-11-20T14:55:38.358Z,32.97
2022-11-20T14:58:07.909Z,33.40
2022-11-20T15:00:36.490Z,33.48
2022-11-20T15:03:16.784Z,33.37
2022-11-20T15:05:47.688Z,33.67
2022-11-20T15:08:17.096Z,33.61
2022-11-20T15:10:50.998Z,33.15
2022-11-20T15:13:32.995Z,33.63
2022-11-20T15:16:20.791Z,33.09
2022-11-20T15:18:48.998Z,33.35
2022-11-20T15:21:19.677Z,33.71
2022-11-20T15:23:48.826Z,34.18
2022-11-20T15:26:30.345Z,33.21
2022-11-20T15:28:58.597Z,33.63
2022-11-20T15:31:26.676Z,33.25
2022-11-20T15:33:54.766Z,33.89
2022-11-20T15:36:23.026Z,33.66
2022-11-20T15:38:51.173Z,33.45
2022-11-20T15:41:19.284Z,33.02
2022-11-20T15:43:47.563Z,32.84
2022-11-20T15:46:18.031Z,32.87
2022-11-20T15:48:50.575Z,32.93
2022-11-20T15:51:27.860Z,33.40
2022-11-20T15:53:56.854Z,33.53
2022-11-20T15:56:25.755Z,33.55
2022-11-20T15:58:54.336Z,33.24
2022-11-20T16:01:23.670Z,33.81
2022-11-20T16:03:51.928Z,34.56
2022-11-20T16:06:19.996Z,33.88
2022-11-20T16:08:48.384Z,34.19
2022-11-20T16:11:18.501Z,34.55
2022-11-20T16:13:46.782Z,34.82
2022-11-20T16:16:27.011Z,34.86
2022-11-20T16:18:55.766Z,34.76
2022-11-20T16:21:24.007Z,35.58
2022-11-20T16:23:52.193Z,35.73
2022-11-20T16:26:20.261Z,37.28
2022-11-20T16:28:48.338Z,38.49
2022-11-20T16:31:19.381Z,37.89
2022-11-20T16:33:52.204Z,38.03
2022-11-20T16:36:21.810Z,38.28
2022-11-20T16:38:54.046Z,37.64
2022-11-20T16:41:22.987Z,37.46
2022-11-20T16:43:55.967Z,38.50
2022-11-20T16:46:26.346Z,37.96
2022-11-20T16:48:56.189Z,38.26
2022-11-20T16:51:24.866Z,39.05
2022-11-20T16:53:53.555Z,39.01
2022-11-20T16:56:26.656Z,39.67
2022-11-20T16:58:57.294Z,41.67
2022-11-20T17:01:27.265Z,40.04
2022-11-20T17:04:05.060Z,40.72
2022-11-20T17:06:37.378Z,39.69
2022-11-20T17:09:05.958Z,39.84
2022-11-20T17:11:34.343Z,41.08
2022-11-20T17:14:02.724Z,40.77
2022-11-20T17:16:31.621Z,41.43
2022-11-20T17:19:03.384Z,44.10
2022-11-20T17:21:33.300Z,41.31
2022-11-20T17:24:03.232Z,41.12
2022-11-20T17:26:31.700Z,41.57
2022-11-20T17:29:08.354Z,41.88
2022-11-20T17:31:37.780Z,42.41
2022-11-20T17:34:07.580Z,41.88
2022-11-20T17:36:39.550Z,41.77
2022-11-20T17:39:11.830Z,41.58
2022-11-20T17:41:40.027Z,42.10
2022-11-20T17:44:10.747Z,42.15
2022-11-20T17:46:39.126Z,42.78
2022-11-20T17:49:07.304Z,44.94
2022-11-20T17:51:35.909Z,44.49
2022-11-20T17:54:05.834Z,44.56
2022-11-20T17:56:35.216Z,45.34
2022-11-20T17:59:11.780Z,44.48
2022-11-20T18:01:41.194Z,45.57
2022-11-20T18:04:09.985Z,48.48
2022-11-20T18:06:38.675Z,47.12
2022-11-20T18:09:07.467Z,45.54
2022-11-20T18:11:38.756Z,44.99
2022-11-20T18:14:09.159Z,45.66
2022-11-20T18:16:40.802Z,45.43
2022-11-20T18:19:10.834Z,45.48
2022-11-20T18:21:39.000Z,45.88
2022-11-20T18:24:07.490Z,46.79
2022-11-20T18:26:40.021Z,46.57
2022-11-20T18:29:13.892Z,45.82
2022-11-20T18:31:42.167Z,46.74
2022-11-20T18:34:10.777Z,47.27
2022-11-20T18:36:39.540Z,48.66
2022-11-20T18:39:07.822Z,46.94
2022-11-20T18:41:35.769Z,46.78
2022-11-20T18:44:06.736Z,47.17
2022-11-20T18:46:35.118Z,46.83
2022-11-20T18:49:03.293Z,46.94
2022-11-20T18:51:31.482Z,46.95
2022-11-20T18:53:59.652Z,48.90
2022-11-20T18:56:27.934Z,48.74
2022-11-20T18:59:00.273Z,48.77
2022-11-20T19:01:30.054Z,48.12
2022-11-20T19:03:58.305Z,48.44
2022-11-20T19:06:27.719Z,50.10
2022-11-20T19:08:56.605Z,49.59
2022-11-20T19:11:24.671Z,48.70
2022-11-20T19:13:52.730Z,49.18
2022-11-20T19:16:22.359Z,50.85
2022-11-20T19:18:51.252Z,50.67
2022-11-20T19:21:22.720Z,53.33
2022-11-20T19:23:53.731Z,51.45
2022-11-20T19:26:22.871Z,51.78
2022-11-20T19:28:51.234Z,52.12
2022-11-20T19:31:24.974Z,50.19
2022-11-20T19:33:55.069Z,50.35
2022-11-20T19:36:29.005Z,50.82
2022-11-20T19:38:57.659Z,49.91
2022-11-20T19:41:28.447Z,50.24
2022-11-20T19:43:58.482Z,50.80
2022-11-20T19:46:28.437Z,52.62
2022-11-20T19:48:56.820Z,52.78
2022-11-20T19:51:27.119Z,53.63
2022-11-20T19:53:56.599Z,52.80
2022-11-20T19:56:25.096Z,54.79
2022-11-20T19:58:54.865Z,52.19
2022-11-20T20:01:26.685Z,51.80
2022-11-20T20:03:55.206Z,51.56
2022-11-20T20:06:25.821Z,51.89
2022-11-20T20:08:59.885Z,51.30
2022-11-20T20:11:30.353Z,51.10
2022-11-20T20:14:01.428Z,53.25
2022-11-20T20:16:29.704Z,54.22
2022-11-20T20:18:59.417Z,52.79
2022-11-20T20:21:30.654Z,51.43
2022-11-20T20:23:59.692Z,51.52
2022-11-20T20:26:30.585Z,51.00
2022-11-20T20:28:59.803Z,51.83
2022-11-20T20:31:29.929Z,52.48
2022-11-20T20:33:58.413Z,53.65
2022-11-20T20:36:27.190Z,51.81
2022-11-20T20:38:57.464Z,51.78
2022-11-20T20:41:25.757Z,51.14
2022-11-20T20:43:54.580Z,51.30
2022-11-20T20:46:23.545Z,51.19
2022-11-20T20:48:54.766Z,51.42
2022-11-20T20:51:23.746Z,51.31
2022-11-20T20:53:51.821Z,51.33
2022-11-20T20:56:20.007Z,51.13
2022-11-20T20:58:48.284Z,51.21
2022-11-20T21:01:18.648Z,51.29
2022-11-20T21:03:46.991Z,51.55
2022-11-20T21:06:15.129Z,51.23
2022-11-20T21:08:44.675Z,51.32
2022-11-20T21:11:15.596Z,51.52
2022-11-20T21:13:45.638Z,52.38
2022-11-20T21:16:15.383Z,51.85
2022-11-20T21:18:43.839Z,52.57
2022-11-20T21:21:14.985Z,52.30
2022-11-20T21:23:46.575Z,53.80
2022-11-20T21:26:15.697Z,53.28
2022-11-20T21:28:43.836Z,54.28
2022-11-20T21:31:18.586Z,52.66
2022-11-20T21:33:48.018Z,52.33
2022-11-20T21:36:24.698Z,52.54
2022-11-20T21:38:54.270Z,53.02
2022-11-20T21:41:23.537Z,52.50
2022-11-20T21:44:16.246Z,53.88
2022-11-20T21:46:43.619Z,52.66
2022-11-20T21:49:12.825Z,54.54
2022-11-20T21:51:41.015Z,54.11
2022-11-20T21:54:10.321Z,53.18
2022-11-20T21:56:38.600Z,53.90
2022-11-20T21:59:06.884Z,54.05
2022-11-20T22:01:35.954Z,55.23
2022-11-20T22:04:04.260Z,54.50
2022-11-20T22:06:34.334Z,53.98
2022-11-20T22:09:03.498Z,53.36
2022-11-20T22:11:31.867Z,54.35
2022-11-20T22:14:00.664Z,54.46
2022-11-20T22:16:29.201Z,53.87
2022-11-20T22:18:58.712Z,54.41
2022-11-20T22:21:28.775Z,54.01
2022-11-20T22:23:57.259Z,54.72
2022-11-20T22:26:32.962Z,54.06
2022-11-20T22:29:03.134Z,53.99
2022-11-20T22:31:32.346Z,54.34
2022-11-20T22:34:02.574Z,55.80
2022-11-20T22:36:32.047Z,56.03
2022-11-20T22:39:02.540Z,57.32
2022-11-20T22:41:31.191Z,56.01
2022-11-20T22:44:01.796Z,55.73
2022-11-20T22:46:32.866Z,58.50
2022-11-20T22:49:03.442Z,56.39
2022-11-20T22:51:34.954Z,56.81
2022-11-20T22:54:03.690Z,55.76
2022-11-20T22:56:32.846Z,56.87
2022-11-20T22:59:01.130Z,56.68
2022-11-20T23:01:31.800Z,57.05
2022-11-20T23:04:02.113Z,56.24
2022-11-20T23:06:31.500Z,56.04
2022-11-20T23:08:59.877Z,56.49
2022-11-20T23:11:29.801Z,56.82
2022-11-20T23:14:03.464Z,58.89
2022-11-20T23:16:33.206Z,59.28
2022-11-20T23:19:05.689Z,56.96
2022-11-20T23:21:36.450Z,55.32
2022-11-20T23:24:05.319Z,56.80
2022-11-20T23:26:35.762Z,57.12
2022-11-20T23:29:04.927Z,57.83
2022-11-20T23:31:34.745Z,57.22
2022-11-20T23:34:03.163Z,57.29
2022-11-20T23:36:31.881Z,58.46
2022-11-20T23:39:00.028Z,58.50
2022-11-20T23:41:28.095Z,56.95
2022-11-20T23:43:56.386Z,58.59
2022-11-20T23:46:24.680Z,56.40
2022-11-20T23:48:52.940Z,56.17
2022-11-20T23:51:21.223Z,56.13
2022-11-20T23:53:49.501Z,56.33
2022-11-20T23:56:17.679Z,56.11
2022-11-20T23:58:45.959Z,55.80
